Time;durP1;ratioP1;P1;durP2;ratioP2;P2;SDS_P1;SDS_P2;PMS_P1;PMS_P2;Temp;Humidity;BMP_temperature;BMP_pressure;BME280_temperature;BME280_humidity;BME280_pressure;Samples;Min_cycle;Max_cycle;Signal;HPM_P1;HPM_P2
2022/01/22 00:00:19;;;;;;;12.98;7.43;;;4.20;99.90;;;;;;4954352;28;20549;-77
2022/01/22 00:02:46;;;;;;;17.60;7.80;;;4.20;99.90;;;;;;4956155;28;20276;-80
2022/01/22 00:05:13;;;;;;;12.85;8.30;;;4.20;99.90;;;;;;4956235;28;20188;-79
2022/01/22 00:07:39;;;;;;;16.10;8.90;;;4.30;99.90;;;;;;4956099;28;20224;-77
2022/01/22 00:10:12;;;;;;;16.13;9.33;;;4.10;99.90;;;;;;4956096;28;20183;-79
2022/01/22 00:15:09;;;;;;;13.00;8.13;;;4.30;99.90;;;;;;4955429;28;20181;-79
2022/01/22 00:17:35;;;;;;;18.88;9.25;;;4.20;99.90;;;;;;4955273;28;20555;-79
2022/01/22 00:20:01;;;;;;;19.77;11.07;;;4.20;99.90;;;;;;4955213;28;20177;-79
2022/01/22 00:22:30;;;;;;;25.45;9.98;;;4.20;99.90;;;;;;4954825;28;20444;-78
2022/01/22 00:24:59;;;;;;;20.75;10.55;;;4.10;99.90;;;;;;4955005;28;20596;-78
2022/01/22 00:27:26;;;;;;;23.88;11.45;;;4.20;99.90;;;;;;4954837;28;20232;-78
2022/01/22 00:29:52;;;;;;;19.75;11.48;;;4.10;99.90;;;;;;4955033;28;20189;-79
2022/01/22 00:32:17;;;;;;;21.00;13.00;;;4.10;99.90;;;;;;4954542;28;20197;-80
2022/01/22 00:34:44;;;;;;;19.10;12.40;;;4.20;99.90;;;;;;4954980;28;20182;-79
2022/01/22 00:37:10;;;;;;;20.67;12.90;;;4.20;99.90;;;;;;4953555;29;20186;-79
2022/01/22 00:39:35;;;;;;;22.40;14.48;;;4.10;99.90;;;;;;4955172;28;20186;-79
2022/01/22 00:42:12;;;;;;;14.27;9.07;;;4.10;99.90;;;;;;4954681;28;20268;-78
2022/01/22 00:44:38;;;;;;;17.33;11.23;;;4.10;99.90;;;;;;4955201;28;20184;-79
2022/01/22 00:47:04;;;;;;;23.80;11.77;;;4.10;99.90;;;;;;4954892;28;20206;-78
2022/01/22 00:49:33;;;;;;;21.85;11.00;;;4.10;99.90;;;;;;4954677;28;20260;-79
2022/01/22 00:51:59;;;;;;;14.80;9.82;;;4.10;99.90;;;;;;4954542;28;20201;-78
2022/01/22 00:54:24;;;;;;;16.15;10.27;;;4.10;99.90;;;;;;4954750;28;20186;-78
2022/01/22 00:56:50;;;;;;;18.47;11.87;;;4.20;99.90;;;;;;4954798;28;20256;-79
2022/01/22 00:59:16;;;;;;;21.27;11.83;;;4.10;99.90;;;;;;4954581;28;20189;-79
2022/01/22 01:01:42;;;;;;;19.40;12.60;;;4.10;99.90;;;;;;4954493;28;20219;-80
2022/01/22 01:04:10;;;;;;;16.07;11.50;;;4.20;99.90;;;;;;4955063;28;20464;-79
2022/01/22 01:06:36;;;;;;;23.23;13.27;;;4.10;99.90;;;;;;4954708;28;20552;-79
2022/01/22 01:09:04;;;;;;;17.88;12.40;;;4.10;99.90;;;;;;4954863;28;20186;-79
2022/01/22 01:11:32;;;;;;;21.50;14.77;;;4.20;99.90;;;;;;4955166;28;20212;-79
2022/01/22 01:14:01;;;;;;;22.58;13.95;;;4.20;99.90;;;;;;4958276;28;20229;-77
2022/01/22 01:35:07;;;;;;;23.75;11.52;;;3.80;99.90;;;;;;4958403;28;20650;-78
2022/01/22 01:37:34;;;;;;;31.75;17.65;;;3.80;99.90;;;;;;4958173;28;20185;-80
2022/01/22 01:40:03;;;;;;;35.50;18.98;;;3.80;99.90;;;;;;4958323;28;20177;-78
2022/01/22 01:42:38;;;;;;;31.10;19.08;;;3.80;99.90;;;;;;4957609;28;20228;-78
2022/01/22 01:45:06;;;;;;;32.40;18.83;;;3.80;99.90;;;;;;4957599;28;20559;-79
2022/01/22 01:47:32;;;;;;;34.25;18.60;;;3.80;99.90;;;;;;4957377;28;20284;-77
2022/01/22 01:49:58;;;;;;;29.38;18.08;;;3.90;99.90;;;;;;4957434;28;20178;-79
2022/01/22 01:52:35;;;;;;;28.83;17.87;;;3.90;99.90;;;;;;4957203;28;20202;-77
2022/01/22 01:55:11;;;;;;;31.52;19.00;;;3.80;99.90;;;;;;4957331;28;20180;-78
2022/01/22 01:57:39;;;;;;;24.60;15.85;;;3.80;99.90;;;;;;4957913;28;20181;-76
2022/01/22 02:00:08;;;;;;;25.73;19.45;;;3.80;99.90;;;;;;4957104;28;20192;-76
2022/01/22 02:02:35;;;;;;;26.10;18.98;;;3.80;99.90;;;;;;4956858;28;20264;-77
2022/01/22 02:05:01;;;;;;;31.27;18.63;;;3.80;99.90;;;;;;4957112;28;20596;-77
2022/01/22 02:07:27;;;;;;;37.33;21.13;;;3.90;99.90;;;;;;4957062;28;20205;-79
2022/01/22 02:09:52;;;;;;;31.63;19.10;;;3.90;99.90;;;;;;4957270;28;20546;-77
2022/01/22 02:23:41;;;;;;;30.08;21.13;;;3.90;99.90;;;;;;4956317;28;20239;-81
2022/01/22 02:26:09;;;;;;;29.45;19.38;;;3.80;99.90;;;;;;4956852;28;20224;-78
2022/01/22 02:28:35;;;;;;;37.00;20.35;;;3.70;99.90;;;;;;4955448;28;20211;-77
2022/01/22 02:31:19;;;;;;;43.95;23.60;;;3.70;99.90;;;;;;4956291;28;20244;-77
2022/01/22 02:33:56;;;;;;;41.85;23.75;;;3.70;99.90;;;;;;4956704;28;20260;-78
2022/01/22 02:36:32;;;;;;;37.75;23.38;;;3.80;99.90;;;;;;4956524;28;20180;-79
2022/01/22 02:41:25;;;;;;;32.20;20.57;;;3.80;99.90;;;;;;4956190;28;20285;-78
2022/01/22 02:43:53;;;;;;;36.40;23.35;;;3.80;99.90;;;;;;4956442;28;20265;-81
2022/01/22 02:46:23;;;;;;;31.10;23.00;;;3.80;99.90;;;;;;4956192;28;20208;-78
2022/01/22 02:48:50;;;;;;;34.22;22.67;;;3.70;99.90;;;;;;4956480;28;20157;-79
2022/01/22 02:51:16;;;;;;;58.75;24.90;;;3.80;99.90;;;;;;4954936;28;20347;-78
2022/01/22 02:53:42;;;;;;;38.13;24.30;;;3.80;99.90;;;;;;4956387;28;20632;-79
2022/01/22 02:56:07;;;;;;;29.30;16.70;;;3.80;99.90;;;;;;4954949;29;20177;-79
2022/01/22 02:58:34;;;;;;;36.00;22.73;;;3.80;99.90;;;;;;4956614;28;20378;-77
2022/01/22 03:00:59;;;;;;;44.50;23.50;;;3.80;99.90;;;;;;4955800;28;20293;-77
2022/01/22 03:03:25;;;;;;;38.50;25.07;;;3.80;99.90;;;;;;4956292;28;20182;-78
2022/01/22 03:05:51;;;;;;;40.80;25.63;;;3.90;99.90;;;;;;4956402;28;20182;-78
2022/01/22 03:08:16;;;;;;;39.67;23.00;;;3.90;99.90;;;;;;4956030;28;20461;-77
2022/01/22 03:10:50;;;;;;;43.03;24.40;;;3.80;99.90;;;;;;4955905;28;20212;-78
2022/01/22 03:18:16;;;;;;;39.03;23.73;;;3.90;99.90;;;;;;4955958;28;20174;-77
2022/01/22 03:21:02;;;;;;;35.17;23.70;;;4.00;99.90;;;;;;4939763;29;20275;-77
2022/01/22 03:29:02;;;;;;;36.45;23.45;;;4.00;99.90;;;;;;4955984;29;20692;-77
2022/01/22 03:31:28;;;;;;;40.95;23.80;;;4.00;99.90;;;;;;4955163;28;20208;-78
2022/01/22 03:33:54;;;;;;;51.53;25.77;;;4.00;99.90;;;;;;4955354;28;20581;-78
2022/01/22 03:36:20;;;;;;;36.22;20.73;;;4.00;99.90;;;;;;4955557;29;20173;-77
2022/01/22 03:38:47;;;;;;;34.78;21.15;;;4.00;99.90;;;;;;4955403;28;20182;-78
2022/01/22 03:41:13;;;;;;;37.60;22.67;;;4.10;99.90;;;;;;4955136;28;20722;-77
2022/01/22 03:43:38;;;;;;;32.20;20.57;;;4.00;99.90;;;;;;4955513;28;20256;-79
2022/01/22 03:46:04;;;;;;;34.73;21.63;;;3.90;99.90;;;;;;4954312;29;20783;-79
2022/01/22 03:48:30;;;;;;;41.80;24.23;;;3.90;99.90;;;;;;4955336;28;20269;-78
2022/01/22 03:50:55;;;;;;;40.47;24.30;;;3.90;99.90;;;;;;4953696;28;20441;-79
2022/01/22 03:53:21;;;;;;;22.90;14.50;;;3.90;99.90;;;;;;4955226;28;20213;-78
2022/01/22 03:56:02;;;;;;;37.80;22.87;;;3.90;99.90;;;;;;4955343;28;20186;-77
2022/01/22 03:58:29;;;;;;;34.97;21.00;;;3.90;99.90;;;;;;4955376;28;20188;-79
2022/01/22 04:01:17;;;;;;;33.70;21.90;;;4.00;99.90;;;;;;4954808;28;20189;-77
2022/01/22 04:03:44;;;;;;;34.75;23.45;;;3.90;99.90;;;;;;4955236;29;20205;-79
2022/01/22 04:06:35;;;;;;;30.38;20.63;;;3.90;99.90;;;;;;4955399;28;20182;-79
2022/01/22 04:08:57;;;;;;;24.73;16.70;;;4.00;99.90;;;;;;4955066;28;20205;-77
2022/01/22 04:11:23;;;;;;;44.78;24.17;;;3.90;99.90;;;;;;4954742;28;20213;-78
2022/01/22 04:13:52;;;;;;;38.70;23.80;;;3.90;99.90;;;;;;4955164;28;20189;-78
2022/01/22 04:16:19;;;;;;;33.65;22.92;;;3.90;99.90;;;;;;4955081;28;20594;-78
2022/01/22 04:27:07;;;;;;;31.45;23.45;;;3.90;99.90;;;;;;4954162;29;20208;-79
2022/01/22 04:29:32;;;;;;;35.78;22.10;;;3.90;99.90;;;;;;4954942;28;20174;-77
2022/01/22 04:31:58;;;;;;;43.20;22.50;;;3.90;99.90;;;;;;4952975;28;20205;-79
2022/01/22 04:34:24;;;;;;;43.63;23.83;;;3.90;99.90;;;;;;4954947;28;20191;-80
2022/01/22 04:36:49;;;;;;;44.90;24.50;;;3.90;99.90;;;;;;4954978;28;20651;-77
2022/01/22 04:39:18;;;;;;;32.97;22.23;;;3.90;99.90;;;;;;4954773;28;20218;-78
2022/01/22 04:41:43;;;;;;;40.88;22.42;;;4.00;99.90;;;;;;4953228;28;20296;-77
2022/01/22 04:44:09;;;;;;;37.27;23.37;;;4.00;99.90;;;;;;4954774;28;20329;-80
2022/01/22 04:46:50;;;;;;;40.17;22.47;;;4.10;99.90;;;;;;4956198;28;20657;-78
2022/01/22 04:57:17;;;;;;;30.02;19.70;;;4.00;99.90;;;;;;4957714;29;20203;-77
2022/01/22 04:59:43;;;;;;;37.13;23.60;;;4.10;99.90;;;;;;4957313;29;20181;-80
2022/01/22 05:02:09;;;;;;;40.13;21.70;;;4.10;99.90;;;;;;4958051;28;20518;-78
2022/01/22 05:04:34;;;;;;;31.13;20.20;;;4.00;99.90;;;;;;4958394;28;20467;-78
2022/01/22 05:07:00;;;;;;;40.97;22.33;;;4.10;99.90;;;;;;4958152;28;20259;-79
2022/01/22 05:09:25;;;;;;;39.80;22.00;;;4.10;99.90;;;;;;4958192;28;20248;-79
2022/01/22 05:11:51;;;;;;;45.43;25.03;;;4.10;99.90;;;;;;4957964;28;20213;-78
2022/01/22 05:14:17;;;;;;;36.33;22.07;;;4.10;99.90;;;;;;4957085;29;20228;-79
2022/01/22 05:16:43;;;;;;;40.37;23.77;;;4.10;99.90;;;;;;4957133;29;20180;-80
2022/01/22 05:20:01;;;;;;;38.03;23.80;;;4.10;99.90;;;;;;4958057;28;20525;-78
2022/01/22 05:21:59;;;;;;;35.40;22.15;;;4.20;99.90;;;;;;4953713;28;20216;-80
2022/01/22 05:24:28;;;;;;;36.78;22.80;;;4.10;99.90;;;;;;4958192;28;20178;-79
2022/01/22 05:32:33;;;;;;;37.85;22.20;;;4.20;99.90;;;;;;4957634;28;20232;-78
2022/01/22 05:37:43;;;;;;;39.00;25.13;;;4.20;99.90;;;;;;4956954;29;20200;-78
2022/01/22 05:40:09;;;;;;;38.53;24.87;;;4.20;99.90;;;;;;4957610;28;20185;-79
2022/01/22 05:42:38;;;;;;;35.38;24.55;;;4.20;99.90;;;;;;4957319;28;20197;-79
2022/01/22 05:45:05;;;;;;;45.20;23.85;;;4.20;99.90;;;;;;4957730;28;20221;-79
2022/01/22 05:47:31;;;;;;;43.70;26.45;;;4.20;99.90;;;;;;4957283;28;20225;-76
2022/01/22 05:49:56;;;;;;;43.63;25.30;;;4.20;99.90;;;;;;4957483;28;20256;-76
2022/01/22 05:53:13;;;;;;;39.40;23.73;;;4.20;99.90;;;;;;4957060;28;20201;-77
2022/01/22 05:59:35;;;;;;;34.63;22.20;;;4.30;99.90;;;;;;4954338;29;20229;-80
2022/01/22 06:00:43;;;;;;;43.42;27.17;;;4.30;99.90;;;;;;4957240;29;20268;-79
2022/01/22 06:03:08;;;;;;;44.80;24.73;;;4.40;99.90;;;;;;4957480;28;20292;-79
2022/01/22 06:05:34;;;;;;;47.57;27.13;;;4.30;99.90;;;;;;4957380;28;20185;-78
2022/01/22 06:08:00;;;;;;;42.03;26.33;;;4.40;99.90;;;;;;4957212;28;20686;-77
2022/01/22 06:10:29;;;;;;;40.63;27.37;;;4.40;99.90;;;;;;4956974;28;20330;-79
2022/01/22 06:13:11;;;;;;;36.70;25.00;;;4.30;99.90;;;;;;4956667;28;20225;-79
2022/01/22 06:15:37;;;;;;;46.78;26.73;;;4.30;99.90;;;;;;4957120;28;20170;-77
2022/01/22 06:18:03;;;;;;;39.80;27.17;;;4.30;99.90;;;;;;4956986;29;20185;-78
2022/01/22 06:20:28;;;;;;;39.13;24.87;;;4.40;99.90;;;;;;4956994;28;20186;-77
2022/01/22 06:22:54;;;;;;;43.07;27.97;;;4.30;99.90;;;;;;4956604;28;20223;-78
2022/01/22 06:25:20;;;;;;;49.30;28.33;;;4.40;99.90;;;;;;4956649;28;20190;-79
2022/01/22 06:27:45;;;;;;;41.40;27.83;;;4.40;99.90;;;;;;4957006;28;20674;-78
2022/01/22 06:30:11;;;;;;;49.27;27.87;;;4.40;99.90;;;;;;4956761;28;20173;-78
2022/01/22 06:32:37;;;;;;;45.80;29.20;;;4.40;99.90;;;;;;4956389;28;20433;-79
2022/01/22 06:35:04;;;;;;;42.47;28.13;;;4.50;99.90;;;;;;4956714;28;20194;-79
2022/01/22 06:37:29;;;;;;;44.60;25.25;;;4.50;99.90;;;;;;4956785;28;20553;-77
2022/01/22 06:42:36;;;;;;;43.50;27.50;;;4.60;99.90;;;;;;4956317;28;20208;-77
2022/01/22 06:45:04;;;;;;;54.97;28.25;;;4.50;99.90;;;;;;4956567;28;20320;-79
2022/01/22 06:47:30;;;;;;;42.33;25.33;;;4.40;99.90;;;;;;4956427;28;20297;-77
2022/01/22 06:49:56;;;;;;;49.00;29.70;;;4.50;99.90;;;;;;4956298;28;20174;-78
2022/01/22 06:52:22;;;;;;;44.97;27.73;;;4.40;99.90;;;;;;4955876;28;20193;-79
2022/01/22 06:54:48;;;;;;;43.20;27.48;;;4.50;99.90;;;;;;4956524;28;20219;-78
2022/01/22 06:57:15;;;;;;;41.25;25.88;;;4.40;99.90;;;;;;4956451;28;20184;-77
2022/01/22 06:59:41;;;;;;;45.58;27.08;;;4.40;99.90;;;;;;4956400;28;20186;-77
2022/01/22 07:02:07;;;;;;;45.25;26.50;;;4.50;99.90;;;;;;4955661;28;20221;-78
2022/01/22 07:04:37;;;;;;;48.05;27.70;;;4.40;99.90;;;;;;4956197;28;20187;-79
2022/01/22 07:07:04;;;;;;;47.15;28.50;;;4.50;99.90;;;;;;4954777;29;20213;-77
2022/01/22 07:09:31;;;;;;;44.53;28.30;;;4.50;99.90;;;;;;4955816;28;20205;-79
2022/01/22 07:11:56;;;;;;;42.78;27.95;;;4.60;99.90;;;;;;4955472;28;20223;-79
2022/01/22 07:14:22;;;;;;;50.13;29.87;;;4.60;99.90;;;;;;4955837;28;20181;-78
2022/01/22 07:16:47;;;;;;;48.63;28.90;;;4.50;99.90;;;;;;4956032;28;20186;-77
2022/01/22 07:19:18;;;;;;;52.50;29.60;;;4.60;99.90;;;;;;4956108;28;20670;-77
2022/01/22 07:21:46;;;;;;;54.67;30.35;;;4.60;99.90;;;;;;4955538;28;20203;-78
2022/01/22 07:24:23;;;;;;;49.30;31.60;;;4.60;99.90;;;;;;4955840;28;20235;-78
2022/01/22 07:26:50;;;;;;;46.80;29.40;;;4.60;99.90;;;;;;4954635;28;20299;-78
2022/01/22 07:29:16;;;;;;;49.05;29.67;;;4.50;99.90;;;;;;4955746;28;20189;-78
2022/01/22 07:31:44;;;;;;;44.50;26.00;;;4.50;99.90;;;;;;4955372;28;20559;-79
2022/01/22 07:34:10;;;;;;;49.58;29.48;;;4.60;99.90;;;;;;4955507;28;20516;-77
2022/01/22 07:36:36;;;;;;;50.67;29.10;;;4.50;99.90;;;;;;4955412;28;20178;-78
2022/01/22 07:39:02;;;;;;;48.73;29.87;;;4.60;99.90;;;;;;4955594;28;20185;-76
2022/01/22 07:41:27;;;;;;;52.75;30.67;;;4.60;99.90;;;;;;4955303;28;20205;-78
2022/01/22 07:43:53;;;;;;;49.63;30.77;;;4.60;99.90;;;;;;4955486;28;20237;-78
2022/01/22 07:46:18;;;;;;;52.10;32.13;;;4.60;99.90;;;;;;4955354;28;20221;-78
2022/01/22 07:48:44;;;;;;;48.40;29.63;;;4.60;99.90;;;;;;4955164;28;20208;-78
2022/01/22 07:51:10;;;;;;;46.03;28.70;;;4.60;99.90;;;;;;4955056;28;20670;-79
2022/01/22 07:53:36;;;;;;;52.00;28.75;;;4.50;99.90;;;;;;4955313;28;20201;-76
2022/01/22 07:56:01;;;;;;;49.90;30.47;;;4.50;99.90;;;;;;4955389;28;20210;-80
2022/01/22 07:58:27;;;;;;;50.37;30.60;;;4.60;99.90;;;;;;4955307;28;20189;-77
2022/01/22 08:00:52;;;;;;;51.43;30.53;;;4.60;99.90;;;;;;4954843;28;20385;-80
2022/01/22 08:03:18;;;;;;;52.40;31.60;;;4.60;99.90;;;;;;4955115;28;20263;-78
2022/01/22 08:05:44;;;;;;;62.60;32.53;;;4.70;99.90;;;;;;4955411;28;20177;-79
2022/01/22 08:08:09;;;;;;;52.30;31.77;;;4.70;99.90;;;;;;4955307;28;20255;-79
2022/01/22 08:10:35;;;;;;;47.50;29.50;;;4.60;99.90;;;;;;4955337;28;20436;-80
2022/01/22 08:13:01;;;;;;;51.80;31.53;;;4.70;99.90;;;;;;4954713;28;20283;-77
2022/01/22 08:15:26;;;;;;;57.43;31.40;;;4.70;99.90;;;;;;4955256;28;20181;-80
2022/01/22 08:17:52;;;;;;;50.67;28.07;;;4.80;99.90;;;;;;4955283;28;20177;-79
2022/01/22 08:20:20;;;;;;;55.47;30.17;;;4.80;99.90;;;;;;4954985;28;20205;-78
2022/01/22 08:22:47;;;;;;;46.47;26.90;;;4.80;99.90;;;;;;4957963;28;20256;-79
2022/01/22 08:25:13;;;;;;;50.05;30.75;;;4.80;99.90;;;;;;4958927;28;20181;-78
2022/01/22 08:30:29;;;;;;;48.25;29.08;;;4.80;99.90;;;;;;4949025;28;20193;-80
2022/01/22 08:38:05;;;;;;;58.97;33.45;;;4.80;99.90;;;;;;4958849;29;20467;-78
2022/01/22 08:40:30;;;;;;;59.10;30.73;;;4.80;99.90;;;;;;4963383;28;20189;-80
2022/01/22 08:42:56;;;;;;;59.63;31.63;;;4.80;99.90;;;;;;4976176;28;20200;-80
2022/01/22 08:45:21;;;;;;;56.03;31.47;;;4.70;99.90;;;;;;4977830;28;20192;-79
2022/01/22 08:47:47;;;;;;;59.90;33.70;;;4.80;99.90;;;;;;4976695;28;20213;-79
2022/01/22 08:50:13;;;;;;;59.00;33.20;;;4.80;99.90;;;;;;4977779;28;20240;-80
2022/01/22 08:52:39;;;;;;;58.53;33.00;;;4.80;99.90;;;;;;4977442;28;20193;-78
2022/01/22 08:55:06;;;;;;;51.23;29.40;;;4.80;99.90;;;;;;4977637;28;20255;-78
2022/01/22 08:57:31;;;;;;;52.63;30.80;;;4.80;99.90;;;;;;4977815;28;20431;-77
2022/01/22 08:59:57;;;;;;;48.50;32.13;;;4.80;99.90;;;;;;4977810;28;20567;-78
2022/01/22 09:02:23;;;;;;;56.40;30.53;;;4.70;99.90;;;;;;4977263;28;20451;-78
2022/01/22 09:04:49;;;;;;;59.13;32.90;;;4.80;99.90;;;;;;4977850;28;20181;-79
2022/01/22 09:07:15;;;;;;;56.58;30.08;;;4.80;99.90;;;;;;4977273;28;20517;-79
2022/01/22 09:09:40;;;;;;;61.03;32.20;;;4.90;99.90;;;;;;4977565;28;20255;-77
2022/01/22 09:12:08;;;;;;;55.37;31.80;;;4.90;99.90;;;;;;4977453;28;20695;-79
2022/01/22 09:14:35;;;;;;;54.30;31.52;;;5.00;99.90;;;;;;4977824;28;20188;-79
2022/01/22 09:17:01;;;;;;;50.00;28.42;;;5.00;99.90;;;;;;4977124;28;20189;-79
2022/01/22 09:19:33;;;;;;;52.92;31.27;;;5.00;99.90;;;;;;4977155;28;20271;-77
2022/01/22 09:22:03;;;;;;;52.17;29.40;;;5.00;99.90;;;;;;4976999;28;20196;-78
2022/01/22 09:24:29;;;;;;;56.47;29.42;;;4.90;99.90;;;;;;4977477;28;20264;-78
2022/01/22 09:26:58;;;;;;;50.20;29.77;;;5.00;99.90;;;;;;4977374;28;20303;-77
2022/01/22 09:29:24;;;;;;;42.33;27.42;;;5.10;99.90;;;;;;4977063;28;20660;-77
2022/01/22 09:31:49;;;;;;;49.40;29.47;;;5.10;99.90;;;;;;4976389;28;20193;-79
2022/01/22 09:34:15;;;;;;;56.83;29.07;;;5.00;99.90;;;;;;4977022;28;20181;-79
2022/01/22 09:36:41;;;;;;;54.57;30.20;;;5.10;99.90;;;;;;4977110;28;20416;-78
2022/01/22 09:39:06;;;;;;;60.10;32.27;;;5.10;99.90;;;;;;4977061;28;20655;-80
2022/01/22 09:41:32;;;;;;;55.00;30.60;;;5.10;99.90;;;;;;4976479;28;20287;-79
2022/01/22 09:43:58;;;;;;;51.50;30.07;;;5.20;99.90;;;;;;4976846;28;20191;-79
2022/01/22 09:46:26;;;;;;;54.73;31.10;;;5.10;99.90;;;;;;4976579;28;20262;-79
2022/01/22 09:48:53;;;;;;;63.05;32.35;;;5.20;99.90;;;;;;4976701;28;20544;-79
2022/01/22 09:51:19;;;;;;;46.17;27.88;;;5.20;99.90;;;;;;4976207;28;20288;-80
2022/01/22 09:53:45;;;;;;;49.23;29.87;;;5.20;99.90;;;;;;4976543;28;20311;-79
2022/01/22 09:56:12;;;;;;;50.17;30.25;;;5.20;99.90;;;;;;4976706;28;20423;-78
2022/01/22 09:58:38;;;;;;;46.42;28.60;;;5.10;99.90;;;;;;4976513;28;20268;-79
2022/01/22 10:01:23;;;;;;;58.33;31.13;;;5.10;99.90;;;;;;4975982;28;20300;-78
2022/01/22 10:03:51;;;;;;;49.83;30.45;;;5.20;99.90;;;;;;4976568;28;20180;-78
2022/01/22 10:06:19;;;;;;;56.65;29.77;;;5.20;99.90;;;;;;4976556;28;20279;-79
2022/01/22 10:08:45;;;;;;;58.80;31.27;;;5.20;99.90;;;;;;4976267;28;20205;-78
2022/01/22 10:11:27;;;;;;;52.07;29.07;;;5.20;99.90;;;;;;4976610;28;20555;-78
2022/01/22 10:13:58;;;;;;;45.90;27.08;;;5.20;99.90;;;;;;4976741;28;20412;-79
2022/01/22 10:16:24;;;;;;;57.42;32.75;;;5.20;99.90;;;;;;4976000;28;20213;-78
2022/01/22 10:19:08;;;;;;;62.35;35.78;;;5.10;99.90;;;;;;4976335;28;20524;-79
2022/01/22 10:21:35;;;;;;;54.63;32.38;;;5.10;99.90;;;;;;4975785;28;20196;-79
2022/01/22 10:24:25;;;;;;;56.70;33.33;;;5.20;99.90;;;;;;4975969;28;20268;-78
2022/01/22 10:27:20;;;;;;;62.78;34.42;;;5.20;99.90;;;;;;4976034;28;20173;-80
2022/01/22 10:29:55;;;;;;;59.28;29.58;;;5.20;99.90;;;;;;4975584;28;20599;-79
2022/01/22 10:32:28;;;;;;;50.85;30.25;;;5.20;99.90;;;;;;4975728;28;20246;-79
2022/01/22 10:35:07;;;;;;;67.85;33.53;;;5.30;99.90;;;;;;4975673;28;20172;-79
2022/01/22 10:37:32;;;;;;;66.70;35.20;;;5.30;99.90;;;;;;4975884;28;20173;-79
2022/01/22 10:40:17;;;;;;;56.77;34.17;;;5.30;99.90;;;;;;4975615;28;20610;-80
2022/01/22 10:42:44;;;;;;;59.30;32.65;;;5.30;99.90;;;;;;4975574;28;20596;-78
2022/01/22 10:45:13;;;;;;;60.95;34.45;;;5.40;99.90;;;;;;4975002;28;20204;-79
2022/01/22 10:47:38;;;;;;;59.55;33.10;;;5.40;99.90;;;;;;4975705;28;20201;-78
2022/01/22 10:50:21;;;;;;;61.77;35.10;;;5.30;99.90;;;;;;4975606;28;20177;-77
2022/01/22 10:52:55;;;;;;;56.72;33.72;;;5.40;99.90;;;;;;4975179;28;20193;-79
2022/01/22 10:55:21;;;;;;;58.85;33.63;;;5.40;99.90;;;;;;4975432;28;20180;-79
2022/01/22 10:58:07;;;;;;;62.40;34.70;;;5.40;99.90;;;;;;4975362;28;20263;-79
2022/01/22 11:00:33;;;;;;;55.85;32.83;;;5.40;99.90;;;;;;4975610;28;20200;-78
2022/01/22 11:02:58;;;;;;;56.60;32.92;;;5.40;99.90;;;;;;4975429;28;20215;-79
2022/01/22 11:05:36;;;;;;;56.13;29.30;;;5.50;99.90;;;;;;4975364;28;20180;-78
2022/01/22 11:08:08;;;;;;;52.25;29.17;;;5.50;99.90;;;;;;4975068;28;20208;-80
2022/01/22 11:10:34;;;;;;;45.40;27.13;;;5.50;99.90;;;;;;4975189;28;20177;-79
2022/01/22 11:13:00;;;;;;;43.40;24.83;;;5.60;99.90;;;;;;4974955;28;20222;-78
2022/01/22 11:15:27;;;;;;;44.87;25.97;;;5.60;99.90;;;;;;4973997;28;20507;-78
2022/01/22 11:17:54;;;;;;;51.50;29.13;;;5.60;99.90;;;;;;4974882;28;20268;-79
2022/01/22 11:20:22;;;;;;;53.20;28.05;;;5.60;99.90;;;;;;4974852;28;20185;-81
2022/01/22 11:22:50;;;;;;;49.28;27.88;;;5.70;99.90;;;;;;4974539;28;20230;-78
2022/01/22 11:25:16;;;;;;;55.63;28.15;;;5.70;99.90;;;;;;4974814;28;20191;-80
2022/01/22 11:27:43;;;;;;;50.90;29.40;;;5.80;99.90;;;;;;4974656;28;20216;-79
2022/01/22 11:30:13;;;;;;;50.42;29.67;;;5.80;99.90;;;;;;4974764;28;20177;-81
2022/01/22 11:32:54;;;;;;;42.45;26.23;;;5.80;99.90;;;;;;4974443;28;20220;-80
2022/01/22 11:35:23;;;;;;;43.75;26.90;;;5.80;99.90;;;;;;4975007;28;20184;-80
2022/01/22 11:37:54;;;;;;;47.88;28.17;;;5.80;99.90;;;;;;4974699;28;20551;-82
2022/01/22 11:40:22;;;;;;;48.95;26.80;;;5.80;99.90;;;;;;4974485;28;20176;-80
2022/01/22 11:42:59;;;;;;;42.83;25.25;;;5.80;99.90;;;;;;4974187;28;20771;-81
2022/01/22 11:45:45;;;;;;;51.55;27.42;;;5.70;99.90;;;;;;4974651;28;20179;-80
2022/01/22 11:48:17;;;;;;;48.15;28.35;;;5.70;99.90;;;;;;4974457;28;20204;-80
2022/01/22 11:51:16;;;;;;;50.35;28.35;;;5.60;99.90;;;;;;4972951;28;20233;-79
2022/01/22 11:53:54;;;;;;;51.25;26.45;;;5.70;99.90;;;;;;4974504;28;20181;-79
2022/01/22 11:56:25;;;;;;;59.70;29.70;;;5.60;99.90;;;;;;4974534;28;20180;-79
2022/01/22 11:58:57;;;;;;;48.08;29.27;;;5.60;99.90;;;;;;4974698;28;20160;-81
2022/01/22 12:01:40;;;;;;;48.42;25.75;;;5.60;99.90;;;;;;4974061;28;20199;-80
2022/01/22 12:04:07;;;;;;;50.22;27.50;;;5.60;99.90;;;;;;4974445;28;20176;-80
2022/01/22 12:06:33;;;;;;;49.97;30.48;;;5.60;99.90;;;;;;4974540;28;20181;-80
2022/01/22 12:09:25;;;;;;;52.13;28.67;;;5.60;99.90;;;;;;4976136;28;20216;-79
2022/01/22 12:14:47;;;;;;;62.08;31.52;;;5.70;99.90;;;;;;4974497;28;20539;-81
2022/01/22 12:17:19;;;;;;;55.05;32.72;;;5.70;99.90;;;;;;4974425;28;20180;-79
2022/01/22 12:22:39;;;;;;;55.00;28.30;;;5.70;99.90;;;;;;4973851;28;20203;-80
2022/01/22 12:25:13;;;;;;;56.95;33.55;;;5.70;99.90;;;;;;4974485;28;20665;-80
2022/01/22 12:27:48;;;;;;;56.00;31.63;;;5.80;99.90;;;;;;4974222;28;20231;-79
2022/01/22 12:30:16;;;;;;;54.55;27.52;;;5.70;99.90;;;;;;4972969;28;20243;-81
2022/01/22 12:32:50;;;;;;;56.80;29.05;;;5.70;99.90;;;;;;4973615;28;20197;-79
2022/01/22 12:35:36;;;;;;;65.68;32.80;;;5.70;99.90;;;;;;4974308;28;20196;-80
2022/01/22 12:39:11;;;;;;;52.70;29.10;;;5.80;99.90;;;;;;4974209;28;20173;-80
2022/01/22 12:44:26;;;;;;;52.67;30.00;;;6.00;99.90;;;;;;4974337;28;20169;-80
2022/01/22 12:46:55;;;;;;;51.05;30.50;;;5.90;99.90;;;;;;4972597;28;20195;-78
2022/01/22 12:49:22;;;;;;;54.55;30.90;;;5.80;99.90;;;;;;4973793;28;20169;-80
2022/01/22 12:51:57;;;;;;;55.10;31.00;;;6.00;99.90;;;;;;4972771;28;20712;-81
2022/01/22 12:54:36;;;;;;;48.90;27.85;;;6.00;99.90;;;;;;4972610;28;20185;-80
2022/01/22 12:57:07;;;;;;;50.95;29.92;;;6.00;99.90;;;;;;4972508;28;20665;-80
2022/01/22 12:59:51;;;;;;;61.25;31.80;;;6.10;99.90;;;;;;4973925;28;20240;-78
2022/01/22 13:02:18;;;;;;;52.30;29.48;;;6.10;99.90;;;;;;4973365;28;20227;-79
2022/01/22 13:05:00;;;;;;;47.42;30.15;;;6.10;99.90;;;;;;4974113;28;20187;-81
2022/01/22 13:07:26;;;;;;;51.70;29.92;;;6.10;99.90;;;;;;4974795;28;20216;-80
2022/01/22 13:09:58;;;;;;;47.08;27.52;;;6.10;99.90;;;;;;4977553;28;20176;-79
2022/01/22 13:12:25;;;;;;;50.50;29.92;;;6.10;99.90;;;;;;4974957;28;20223;-80
2022/01/22 13:14:55;;;;;;;42.53;27.80;;;6.10;99.90;;;;;;4976297;28;20173;-81
2022/01/22 13:17:29;;;;;;;45.88;27.13;;;6.10;99.90;;;;;;4976154;28;20187;-79
2022/01/22 13:19:55;;;;;;;51.38;29.98;;;6.20;99.90;;;;;;4976336;28;20584;-79
2022/01/22 13:22:29;;;;;;;45.07;25.33;;;6.20;99.90;;;;;;4975500;28;20205;-80
2022/01/22 13:25:12;;;;;;;44.88;28.02;;;6.20;99.90;;;;;;4976050;28;20228;-81
2022/01/22 13:27:40;;;;;;;43.40;26.92;;;6.10;99.90;;;;;;4976078;28;20619;-81
2022/01/22 13:30:08;;;;;;;49.50;30.90;;;6.10;99.90;;;;;;4976010;28;20201;-79
2022/01/22 13:32:56;;;;;;;47.78;27.38;;;6.00;99.90;;;;;;4975695;28;20197;-80
2022/01/22 13:35:49;;;;;;;43.30;26.92;;;6.00;99.90;;;;;;4975776;28;20176;-79
2022/01/22 13:49:08;;;;;;;49.47;28.58;;;6.00;99.90;;;;;;4975610;28;20192;-81
2022/01/22 13:51:34;;;;;;;41.50;27.20;;;6.00;99.90;;;;;;4973376;28;20197;-80
2022/01/22 13:54:02;;;;;;;46.77;26.80;;;6.00;99.90;;;;;;4971961;28;20444;-79
2022/01/22 13:56:44;;;;;;;44.13;27.40;;;6.00;99.90;;;;;;4975398;28;20177;-79
2022/01/22 13:59:31;;;;;;;56.53;29.02;;;6.00;99.90;;;;;;4975416;28;20173;-80
2022/01/22 14:02:15;;;;;;;51.15;28.23;;;5.90;99.90;;;;;;4975426;28;20200;-80
2022/01/22 14:04:44;;;;;;;46.88;31.17;;;6.00;99.90;;;;;;4975817;28;20573;-81
2022/01/22 14:07:32;;;;;;;43.47;27.90;;;6.10;99.90;;;;;;4975544;28;20231;-78
2022/01/22 14:10:01;;;;;;;49.42;29.95;;;6.00;99.90;;;;;;4975531;28;20289;-79
2022/01/22 14:12:40;;;;;;;66.77;34.57;;;6.00;99.90;;;;;;4937793;28;1102096;-81
2022/01/22 14:15:10;;;;;;;50.28;31.70;;;6.00;99.90;;;;;;4976377;28;20173;-81
2022/01/22 14:17:54;;;;;;;47.53;30.55;;;6.00;99.90;;;;;;4974933;28;20180;-79
2022/01/22 14:20:27;;;;;;;59.38;31.40;;;6.00;99.90;;;;;;4974844;28;20227;-79
2022/01/22 14:23:05;;;;;;;48.67;29.85;;;6.00;99.90;;;;;;4976210;28;20203;-81
2022/01/22 14:25:34;;;;;;;61.03;31.52;;;6.00;99.90;;;;;;4975845;28;20515;-79
2022/01/22 14:28:03;;;;;;;48.50;30.00;;;6.00;99.90;;;;;;4976198;28;20196;-79
2022/01/22 14:30:38;;;;;;;58.25;32.17;;;5.90;99.90;;;;;;4976079;28;20219;-81
2022/01/22 14:33:05;;;;;;;53.58;31.25;;;6.00;99.90;;;;;;4975591;28;20196;-79